Wittmann, Arizona
Current Conditions -  °F | °C
As of 4:58 AM on Sunday 23 Nov 2014 (Local Time) from KLUF Reporting Station
Clear Clear  
Wind Chill: 42°   Ceiling: Unl
Heat Index: 45°   Visibility: 10mi
Dew Point: 30°   Wind: 5mph
Humidity: 57%   Direction: 10°N
Pressure: 29.93"   Gusts: NA
Location:  33.78°N, 112.53°W
Report Text: KLUF 231158Z AUTO 01004KT 10SM CLR 07/M01 A2993 RMK AO2 SLP132 50000
Loading
Personal Weather Stations






























Interactive Weather Map New forecast layout! Learn more

10-Day Weather Forecast

Advertisements
Track Severe Weather on mobile